Time;durP1;ratioP1;P1;durP2;ratioP2;P2;SDS_P1;SDS_P2;PMS_P1;PMS_P2;Temp;Humidity;BMP_temperature;BMP_pressure;BME280_temperature;BME280_humidity;BME280_pressure;Samples;Min_cycle;Max_cycle;Signal;HPM_P1;HPM_P2
2024/01/23 00:01:14;;;;;;;28.88;22.02;;;;;;;;;;5016810;28;20466;-56
2024/01/23 00:03:40;;;;;;;32.80;23.42;;;;;;;;;;5009114;28;20040;-57
2024/01/23 00:06:05;;;;;;;30.58;22.55;;;;;;;;;;5016083;28;20169;-57
2024/01/23 00:08:31;;;;;;;30.58;22.65;;;;;;;;;;5008596;28;20117;-59
2024/01/23 00:10:56;;;;;;;31.42;22.10;;;;;;;;;;5006254;28;20038;-58
2024/01/23 00:13:21;;;;;;;31.80;23.95;;;;;;;;;;5007570;28;20481;-57
2024/01/23 00:15:47;;;;;;;32.38;23.02;;;;;;;;;;5004586;28;20113;-58
2024/01/23 00:18:12;;;;;;;31.63;23.60;;;;;;;;;;5010936;28;20125;-57
2024/01/23 00:20:37;;;;;;;31.70;22.83;;;;;;;;;;5024519;28;20130;-58
2024/01/23 00:23:03;;;;;;;33.80;23.05;;;;;;;;;;5012836;28;20464;-58
2024/01/23 00:25:28;;;;;;;30.52;22.75;;;;;;;;;;5008880;28;20032;-58
2024/01/23 00:27:53;;;;;;;30.70;22.45;;;;;;;;;;5008054;28;20441;-58
2024/01/23 00:30:19;;;;;;;30.40;23.13;;;;;;;;;;5014668;28;20528;-58
2024/01/23 00:32:45;;;;;;;34.33;23.73;;;;;;;;;;5006951;28;20049;-57
2024/01/23 00:35:10;;;;;;;32.55;24.00;;;;;;;;;;5000856;28;20064;-57
2024/01/23 00:37:35;;;;;;;30.65;22.98;;;;;;;;;;5005456;28;20054;-57
2024/01/23 00:40:03;;;;;;;32.45;23.33;;;;;;;;;;5009326;28;20176;-57
2024/01/23 00:42:28;;;;;;;32.75;24.25;;;;;;;;;;5013761;28;20030;-57
2024/01/23 00:44:53;;;;;;;32.35;24.20;;;;;;;;;;5003886;28;20160;-58
2024/01/23 00:47:19;;;;;;;33.53;24.52;;;;;;;;;;4994359;28;20029;-58
2024/01/23 00:49:44;;;;;;;31.45;23.05;;;;;;;;;;5010666;28;20105;-56
2024/01/23 00:52:09;;;;;;;31.48;23.65;;;;;;;;;;5020232;28;20041;-56
2024/01/23 00:54:35;;;;;;;33.35;24.40;;;;;;;;;;5025009;28;20060;-56
2024/01/23 00:57:00;;;;;;;31.83;23.17;;;;;;;;;;5016126;28;20038;-57
2024/01/23 00:59:26;;;;;;;33.05;23.77;;;;;;;;;;5010286;28;20048;-57
2024/01/23 01:01:51;;;;;;;32.97;23.73;;;;;;;;;;5013828;28;20116;-58
2024/01/23 01:04:18;;;;;;;31.38;23.83;;;;;;;;;;5013440;28;20057;-59
2024/01/23 01:06:44;;;;;;;33.30;23.77;;;;;;;;;;4994562;28;20635;-56
2024/01/23 01:09:09;;;;;;;33.97;23.85;;;;;;;;;;4991815;28;20129;-57
2024/01/23 01:11:34;;;;;;;32.15;24.27;;;;;;;;;;5010504;28;20188;-57
2024/01/23 01:14:00;;;;;;;33.20;24.17;;;;;;;;;;5011257;28;20037;-57
2024/01/23 01:16:25;;;;;;;33.17;23.70;;;;;;;;;;5006608;28;20044;-56
2024/01/23 01:18:51;;;;;;;32.88;24.08;;;;;;;;;;5012774;28;20472;-56
2024/01/23 01:21:16;;;;;;;33.00;24.08;;;;;;;;;;5009751;28;20030;-57
2024/01/23 01:23:41;;;;;;;33.25;24.52;;;;;;;;;;5010917;28;20042;-57
2024/01/23 01:26:06;;;;;;;33.17;23.65;;;;;;;;;;5002647;28;20053;-57
2024/01/23 01:28:32;;;;;;;32.40;23.70;;;;;;;;;;4994769;28;20052;-58
2024/01/23 01:30:57;;;;;;;32.38;23.45;;;;;;;;;;4997787;28;20500;-58
2024/01/23 01:33:22;;;;;;;34.08;23.95;;;;;;;;;;5004229;28;20133;-58
2024/01/23 01:35:50;;;;;;;34.33;24.45;;;;;;;;;;5010310;28;20044;-58
2024/01/23 01:38:15;;;;;;;32.95;23.65;;;;;;;;;;5020300;28;20042;-57
2024/01/23 01:40:41;;;;;;;34.53;23.88;;;;;;;;;;5010912;28;20072;-58
2024/01/23 01:43:14;;;;;;;32.92;24.02;;;;;;;;;;5010530;28;20026;-58
2024/01/23 01:45:39;;;;;;;33.65;24.15;;;;;;;;;;5006766;28;20041;-58
2024/01/23 01:48:05;;;;;;;33.17;24.65;;;;;;;;;;5019698;28;20034;-56
2024/01/23 01:50:30;;;;;;;32.15;23.92;;;;;;;;;;5021536;28;20049;-58
2024/01/23 01:52:55;;;;;;;32.55;23.20;;;;;;;;;;5011050;28;20033;-57
2024/01/23 01:55:21;;;;;;;31.00;22.25;;;;;;;;;;4997942;28;20057;-58
2024/01/23 01:57:46;;;;;;;33.50;24.80;;;;;;;;;;5014735;28;20139;-58
2024/01/23 02:00:12;;;;;;;32.85;23.70;;;;;;;;;;5010274;28;20030;-58
2024/01/23 02:02:41;;;;;;;32.97;23.58;;;;;;;;;;5010823;28;20129;-57
2024/01/23 02:05:06;;;;;;;33.45;24.35;;;;;;;;;;4996312;28;20053;-57
2024/01/23 02:07:33;;;;;;;32.92;24.67;;;;;;;;;;4999192;28;20128;-57
2024/01/23 02:09:58;;;;;;;33.88;24.05;;;;;;;;;;5003749;28;20049;-57
2024/01/23 02:12:24;;;;;;;34.70;24.05;;;;;;;;;;5010853;28;20029;-57
2024/01/23 02:14:49;;;;;;;33.03;23.92;;;;;;;;;;5010728;28;20034;-58
2024/01/23 02:17:14;;;;;;;33.88;23.58;;;;;;;;;;4999050;28;20169;-58
2024/01/23 02:19:39;;;;;;;31.67;22.95;;;;;;;;;;5009116;28;20034;-56
2024/01/23 02:22:05;;;;;;;34.65;24.38;;;;;;;;;;5009031;28;20131;-58
2024/01/23 02:24:30;;;;;;;34.85;24.75;;;;;;;;;;5005373;28;20038;-56
2024/01/23 02:26:55;;;;;;;35.00;24.70;;;;;;;;;;5008753;28;20045;-57
2024/01/23 02:29:21;;;;;;;31.30;24.23;;;;;;;;;;5009504;28;20053;-58
2024/01/23 02:31:46;;;;;;;34.08;24.20;;;;;;;;;;5008735;28;20493;-58
2024/01/23 02:34:11;;;;;;;33.25;23.38;;;;;;;;;;5008652;28;20499;-57
2024/01/23 02:36:39;;;;;;;34.03;24.73;;;;;;;;;;5007182;28;20074;-58
2024/01/23 02:39:05;;;;;;;31.75;23.15;;;;;;;;;;5008799;28;20496;-56
2024/01/23 02:41:30;;;;;;;33.50;23.63;;;;;;;;;;5009709;28;20050;-59
2024/01/23 02:43:56;;;;;;;33.58;24.23;;;;;;;;;;5008783;28;20034;-59
2024/01/23 02:46:21;;;;;;;34.30;24.80;;;;;;;;;;5008337;28;20056;-57
2024/01/23 02:48:46;;;;;;;33.28;24.25;;;;;;;;;;5011720;28;20404;-59
2024/01/23 02:51:19;;;;;;;32.45;23.30;;;;;;;;;;5021836;28;20045;-56
2024/01/23 02:53:44;;;;;;;34.13;24.63;;;;;;;;;;5008562;28;20044;-57
2024/01/23 02:56:09;;;;;;;32.88;23.20;;;;;;;;;;5009023;28;20037;-57
2024/01/23 02:58:34;;;;;;;32.88;23.83;;;;;;;;;;5008410;28;20030;-63
2024/01/23 03:01:00;;;;;;;34.90;24.35;;;;;;;;;;5008601;28;20037;-57
2024/01/23 03:03:25;;;;;;;35.90;23.85;;;;;;;;;;5003977;28;20042;-58
2024/01/23 03:05:50;;;;;;;33.25;23.55;;;;;;;;;;5015051;28;20037;-56
2024/01/23 03:08:16;;;;;;;31.48;23.67;;;;;;;;;;5028086;28;20030;-58
2024/01/23 03:10:41;;;;;;;33.50;24.38;;;;;;;;;;5010276;28;20046;-58
2024/01/23 03:13:06;;;;;;;33.35;23.33;;;;;;;;;;5008488;28;20518;-58
2024/01/23 03:15:32;;;;;;;35.72;23.85;;;;;;;;;;5007751;28;20034;-58
2024/01/23 03:17:58;;;;;;;32.35;22.70;;;;;;;;;;5008121;28;20735;-58
2024/01/23 03:20:28;;;;;;;33.80;23.95;;;;;;;;;;5007386;28;20034;-57
2024/01/23 03:22:53;;;;;;;32.80;24.08;;;;;;;;;;5020393;28;20585;-58
2024/01/23 03:25:19;;;;;;;30.77;22.38;;;;;;;;;;4992355;28;20026;-58
2024/01/23 03:27:45;;;;;;;35.42;24.55;;;;;;;;;;4989234;28;20461;-58
2024/01/23 03:30:26;;;;;;;32.28;23.27;;;;;;;;;;5006192;28;20069;-58
2024/01/23 03:32:51;;;;;;;32.45;22.95;;;;;;;;;;5005620;28;20033;-58
2024/01/23 03:35:16;;;;;;;31.67;22.92;;;;;;;;;;5007892;28;20112;-59
2024/01/23 03:37:41;;;;;;;33.00;23.27;;;;;;;;;;5008031;28;20018;-58
2024/01/23 03:40:07;;;;;;;34.35;23.65;;;;;;;;;;5007953;28;20065;-59
2024/01/23 03:42:32;;;;;;;33.17;23.08;;;;;;;;;;5012299;28;20116;-57
2024/01/23 03:47:42;;;;;;;32.42;23.10;;;;;;;;;;5007748;28;20092;-58
2024/01/23 03:50:07;;;;;;;34.30;24.20;;;;;;;;;;5008198;28;20042;-58
2024/01/23 03:52:32;;;;;;;31.60;22.30;;;;;;;;;;5007268;28;20033;-57
2024/01/23 03:54:58;;;;;;;32.13;23.27;;;;;;;;;;5007653;28;20504;-57
2024/01/23 03:57:23;;;;;;;30.67;22.63;;;;;;;;;;5007789;28;20416;-57
2024/01/23 03:59:49;;;;;;;34.72;24.20;;;;;;;;;;5011011;28;20034;-58
2024/01/23 04:02:14;;;;;;;30.65;21.95;;;;;;;;;;5007620;28;20040;-56
2024/01/23 04:04:40;;;;;;;30.88;22.27;;;;;;;;;;5006995;28;20038;-57
2024/01/23 04:07:05;;;;;;;31.75;22.92;;;;;;;;;;5007765;28;20652;-58
2024/01/23 04:09:30;;;;;;;32.90;22.98;;;;;;;;;;5005107;28;20666;-57
2024/01/23 04:11:56;;;;;;;31.42;21.65;;;;;;;;;;5006086;28;20042;-57
2024/01/23 04:14:21;;;;;;;30.95;22.05;;;;;;;;;;5006741;28;20409;-57
2024/01/23 04:16:47;;;;;;;30.75;22.25;;;;;;;;;;5002171;28;20117;-57
2024/01/23 04:19:12;;;;;;;32.50;22.48;;;;;;;;;;5003383;28;20045;-61
2024/01/23 04:21:37;;;;;;;29.13;22.45;;;;;;;;;;4991640;28;20402;-63
2024/01/23 04:24:03;;;;;;;32.10;21.83;;;;;;;;;;4986692;28;20484;-62
2024/01/23 04:26:28;;;;;;;33.72;22.10;;;;;;;;;;4988922;28;20223;-61
2024/01/23 04:28:53;;;;;;;34.15;23.27;;;;;;;;;;4997530;28;20053;-65
2024/01/23 04:31:19;;;;;;;32.25;21.98;;;;;;;;;;4991069;28;20053;-63
2024/01/23 04:33:46;;;;;;;30.73;22.50;;;;;;;;;;4987166;28;20034;-60
2024/01/23 04:36:12;;;;;;;30.85;21.35;;;;;;;;;;4986953;28;22030;-61
2024/01/23 04:38:37;;;;;;;29.85;21.35;;;;;;;;;;4987227;28;20034;-59
2024/01/23 04:41:03;;;;;;;29.85;21.67;;;;;;;;;;4991525;28;20373;-61
2024/01/23 04:43:28;;;;;;;30.13;21.55;;;;;;;;;;4987359;28;20041;-62
2024/01/23 04:45:54;;;;;;;30.13;21.75;;;;;;;;;;4993567;28;20048;-61
2024/01/23 04:48:19;;;;;;;27.45;19.88;;;;;;;;;;4987686;28;20500;-62
2024/01/23 04:50:44;;;;;;;29.35;20.30;;;;;;;;;;4987482;28;20484;-61
2024/01/23 04:53:10;;;;;;;32.22;21.60;;;;;;;;;;4987658;28;20536;-60
2024/01/23 04:55:35;;;;;;;29.40;20.63;;;;;;;;;;4988923;28;20148;-60
2024/01/23 04:58:00;;;;;;;28.40;21.25;;;;;;;;;;4988433;28;20082;-61
2024/01/23 05:00:26;;;;;;;28.60;20.73;;;;;;;;;;4991228;28;20113;-62
2024/01/23 05:02:51;;;;;;;26.02;20.08;;;;;;;;;;4988127;28;20172;-61
2024/01/23 05:05:17;;;;;;;29.45;19.98;;;;;;;;;;4989473;28;20109;-60
2024/01/23 05:07:42;;;;;;;28.17;20.67;;;;;;;;;;4989086;28;20034;-60
2024/01/23 05:10:08;;;;;;;27.80;20.55;;;;;;;;;;4988684;28;20137;-63
2024/01/23 05:12:33;;;;;;;27.27;19.73;;;;;;;;;;4990437;28;20042;-63
2024/01/23 05:14:59;;;;;;;30.38;21.30;;;;;;;;;;4989930;28;20041;-61
2024/01/23 05:17:24;;;;;;;27.10;19.60;;;;;;;;;;4988163;28;20049;-62
2024/01/23 05:19:49;;;;;;;28.10;19.83;;;;;;;;;;4987687;28;20070;-62
2024/01/23 05:22:15;;;;;;;27.23;19.80;;;;;;;;;;4987858;28;20046;-62
2024/01/23 05:24:40;;;;;;;29.33;20.25;;;;;;;;;;4998078;28;20042;-61
2024/01/23 05:27:05;;;;;;;25.65;19.13;;;;;;;;;;4995348;28;20180;-62
2024/01/23 05:29:31;;;;;;;28.85;19.73;;;;;;;;;;4991692;28;20481;-61
2024/01/23 05:31:56;;;;;;;28.30;20.13;;;;;;;;;;4991282;28;20091;-61
2024/01/23 05:34:21;;;;;;;27.23;19.80;;;;;;;;;;4991869;28;20308;-60
2024/01/23 05:36:47;;;;;;;27.20;19.70;;;;;;;;;;4993248;28;20042;-64
2024/01/23 05:39:12;;;;;;;26.70;19.67;;;;;;;;;;4990738;28;20038;-61
2024/01/23 05:41:37;;;;;;;27.83;19.27;;;;;;;;;;4990716;28;21542;-64
2024/01/23 05:44:02;;;;;;;26.83;19.05;;;;;;;;;;4992942;28;20034;-62
2024/01/23 05:46:28;;;;;;;26.73;19.70;;;;;;;;;;4990712;28;20084;-62
2024/01/23 05:48:54;;;;;;;26.63;19.02;;;;;;;;;;4990186;28;20045;-63
2024/01/23 05:51:19;;;;;;;25.92;18.70;;;;;;;;;;4997406;28;20124;-61
2024/01/23 05:53:44;;;;;;;24.23;17.67;;;;;;;;;;4992146;28;20700;-62
2024/01/23 05:56:10;;;;;;;26.80;19.17;;;;;;;;;;4990843;28;20041;-65
2024/01/23 05:58:35;;;;;;;25.75;18.90;;;;;;;;;;4991702;28;20527;-63
2024/01/23 06:01:00;;;;;;;29.30;19.75;;;;;;;;;;4996129;28;20508;-60
2024/01/23 06:03:26;;;;;;;26.52;18.98;;;;;;;;;;4994966;28;20444;-61
2024/01/23 06:05:51;;;;;;;27.67;19.45;;;;;;;;;;4992582;28;20066;-62
2024/01/23 06:08:16;;;;;;;27.85;19.17;;;;;;;;;;4990662;28;20098;-62
2024/01/23 06:10:42;;;;;;;26.48;18.58;;;;;;;;;;4991605;28;20042;-63
2024/01/23 06:13:07;;;;;;;29.70;20.33;;;;;;;;;;4996835;28;20137;-64
2024/01/23 06:15:32;;;;;;;35.53;18.80;;;;;;;;;;4991079;28;20049;-64
2024/01/23 06:17:58;;;;;;;23.45;17.40;;;;;;;;;;4994688;28;20053;-62
2024/01/23 06:20:23;;;;;;;25.77;18.23;;;;;;;;;;4992630;28;20037;-65
2024/01/23 06:22:48;;;;;;;25.15;18.45;;;;;;;;;;4994931;28;20030;-62
2024/01/23 06:25:16;;;;;;;26.15;18.55;;;;;;;;;;4997666;28;20053;-63
2024/01/23 06:27:42;;;;;;;26.45;19.42;;;;;;;;;;4990673;28;20588;-63
2024/01/23 06:30:11;;;;;;;27.80;19.25;;;;;;;;;;4992327;28;20034;-63
2024/01/23 06:32:36;;;;;;;26.15;18.35;;;;;;;;;;5006536;28;20058;-62
2024/01/23 06:35:02;;;;;;;27.17;18.13;;;;;;;;;;4991187;28;20437;-60
2024/01/23 06:37:27;;;;;;;26.80;18.90;;;;;;;;;;4994746;28;20146;-60
2024/01/23 06:39:52;;;;;;;27.10;18.92;;;;;;;;;;4992136;28;20401;-64
2024/01/23 06:42:19;;;;;;;25.20;18.23;;;;;;;;;;4990304;28;20035;-64
2024/01/23 06:44:44;;;;;;;26.80;19.08;;;;;;;;;;4989712;28;20064;-65
2024/01/23 06:47:09;;;;;;;26.17;18.20;;;;;;;;;;4990242;28;20042;-64
2024/01/23 06:49:35;;;;;;;28.60;19.63;;;;;;;;;;4991573;28;20171;-62
2024/01/23 06:52:01;;;;;;;28.27;19.02;;;;;;;;;;4993599;28;20046;-60
2024/01/23 06:54:26;;;;;;;27.67;18.13;;;;;;;;;;5001579;28;20041;-62
2024/01/23 06:56:51;;;;;;;29.92;19.25;;;;;;;;;;4987248;28;20797;-62
2024/01/23 06:59:17;;;;;;;30.02;19.20;;;;;;;;;;4986374;28;20526;-60
2024/01/23 07:01:42;;;;;;;26.75;19.20;;;;;;;;;;4996526;28;20041;-61
2024/01/23 07:04:07;;;;;;;27.23;18.13;;;;;;;;;;5010284;28;20120;-58
2024/01/23 07:06:33;;;;;;;25.98;18.45;;;;;;;;;;5006912;28;20045;-58
2024/01/23 07:08:58;;;;;;;25.48;17.98;;;;;;;;;;4999468;28;20492;-62
2024/01/23 07:11:23;;;;;;;27.33;17.95;;;;;;;;;;5011048;28;20120;-57
2024/01/23 07:13:49;;;;;;;26.20;18.27;;;;;;;;;;5009928;28;20030;-60
2024/01/23 07:16:15;;;;;;;27.25;18.85;;;;;;;;;;5003351;28;20041;-59
2024/01/23 07:18:40;;;;;;;26.67;18.63;;;;;;;;;;5004851;28;20030;-58
2024/01/23 07:21:06;;;;;;;25.90;18.05;;;;;;;;;;5000807;28;20037;-58
2024/01/23 07:23:33;;;;;;;26.85;17.95;;;;;;;;;;5002232;28;20293;-63
2024/01/23 07:25:58;;;;;;;25.40;18.77;;;;;;;;;;4999838;28;20069;-59
2024/01/23 07:28:24;;;;;;;25.13;17.58;;;;;;;;;;4998220;28;20054;-59
2024/01/23 07:30:49;;;;;;;26.80;17.77;;;;;;;;;;5002322;28;20043;-60
2024/01/23 07:33:14;;;;;;;26.77;17.95;;;;;;;;;;5003134;28;20034;-58
2024/01/23 07:35:40;;;;;;;25.38;18.17;;;;;;;;;;5007443;28;20030;-62
2024/01/23 07:38:10;;;;;;;24.33;17.63;;;;;;;;;;4998371;28;20034;-57
2024/01/23 07:40:36;;;;;;;25.63;17.27;;;;;;;;;;5012404;28;20100;-61
2024/01/23 07:43:01;;;;;;;25.52;18.73;;;;;;;;;;5010376;28;20030;-63
2024/01/23 07:45:26;;;;;;;26.48;18.30;;;;;;;;;;5007503;28;20091;-58
2024/01/23 07:47:52;;;;;;;28.70;18.73;;;;;;;;;;5010941;28;20046;-63
2024/01/23 07:50:18;;;;;;;28.08;18.27;;;;;;;;;;4997699;28;20267;-65
2024/01/23 07:52:43;;;;;;;24.80;17.45;;;;;;;;;;5006867;28;20034;-60
2024/01/23 07:55:08;;;;;;;25.23;17.92;;;;;;;;;;5007380;28;20467;-62
2024/01/23 07:57:34;;;;;;;27.38;17.48;;;;;;;;;;5008925;28;20033;-65
2024/01/23 07:59:59;;;;;;;26.02;17.65;;;;;;;;;;5010583;28;20129;-64
2024/01/23 08:02:26;;;;;;;24.00;17.25;;;;;;;;;;5003751;28;20033;-59
2024/01/23 08:04:51;;;;;;;25.48;17.48;;;;;;;;;;5005114;28;20091;-65
2024/01/23 08:07:17;;;;;;;25.33;17.95;;;;;;;;;;5001733;28;20038;-62
2024/01/23 08:09:42;;;;;;;26.20;17.02;;;;;;;;;;5007439;28;20041;-62
2024/01/23 08:12:08;;;;;;;26.77;18.17;;;;;;;;;;5002128;28;20129;-61
2024/01/23 08:14:33;;;;;;;24.77;17.55;;;;;;;;;;5001446;28;20033;-57
2024/01/23 08:16:59;;;;;;;26.05;18.08;;;;;;;;;;5010250;28;20041;-61
2024/01/23 08:19:24;;;;;;;25.17;17.38;;;;;;;;;;5006773;28;20049;-58
2024/01/23 08:21:49;;;;;;;24.02;16.80;;;;;;;;;;5004347;28;20033;-58
2024/01/23 08:24:15;;;;;;;24.42;16.73;;;;;;;;;;5012272;28;20045;-62
2024/01/23 08:26:41;;;;;;;24.92;17.50;;;;;;;;;;5002971;28;20037;-58
2024/01/23 08:29:09;;;;;;;27.45;17.85;;;;;;;;;;5007584;28;20030;-58
2024/01/23 08:31:35;;;;;;;23.98;16.58;;;;;;;;;;5006769;28;20124;-60
2024/01/23 08:34:00;;;;;;;24.75;17.58;;;;;;;;;;5006318;28;20377;-57
2024/01/23 08:36:25;;;;;;;24.08;17.08;;;;;;;;;;5007232;28;20030;-61
2024/01/23 08:38:51;;;;;;;25.58;17.48;;;;;;;;;;5007666;28;20053;-56
2024/01/23 08:41:16;;;;;;;23.40;16.88;;;;;;;;;;5006011;28;20574;-60
2024/01/23 08:43:41;;;;;;;25.70;17.98;;;;;;;;;;5008110;28;20062;-56
2024/01/23 08:46:07;;;;;;;24.63;17.65;;;;;;;;;;5018830;28;20034;-56
2024/01/23 08:48:32;;;;;;;24.63;17.30;;;;;;;;;;5007174;28;20038;-57
2024/01/23 08:50:57;;;;;;;24.30;16.90;;;;;;;;;;5006122;28;20045;-61
2024/01/23 08:53:23;;;;;;;24.38;17.60;;;;;;;;;;5009395;28;20508;-57
2024/01/23 08:55:48;;;;;;;27.25;17.70;;;;;;;;;;5000886;28;20550;-59
2024/01/23 08:58:17;;;;;;;25.75;17.75;;;;;;;;;;5004204;28;20038;-58
2024/01/23 09:00:42;;;;;;;25.88;17.95;;;;;;;;;;5008903;28;20416;-59
2024/01/23 09:03:07;;;;;;;26.80;17.95;;;;;;;;;;5011250;28;20021;-58
2024/01/23 09:05:33;;;;;;;24.05;17.70;;;;;;;;;;5010983;28;20113;-58
2024/01/23 09:07:58;;;;;;;27.48;18.17;;;;;;;;;;5017417;28;20033;-58
2024/01/23 09:10:23;;;;;;;25.75;17.90;;;;;;;;;;5015599;28;20121;-65
2024/01/23 09:12:49;;;;;;;27.10;17.67;;;;;;;;;;5009895;28;20171;-61
2024/01/23 09:15:14;;;;;;;24.77;17.67;;;;;;;;;;5018992;28;20034;-58
2024/01/23 09:17:40;;;;;;;24.58;17.55;;;;;;;;;;5011263;28;20038;-58
2024/01/23 09:20:06;;;;;;;24.00;17.55;;;;;;;;;;5011623;28;20045;-57
2024/01/23 09:22:31;;;;;;;24.42;17.70;;;;;;;;;;5010240;28;20042;-58
2024/01/23 09:24:59;;;;;;;23.95;17.27;;;;;;;;;;5011253;28;20475;-57
2024/01/23 09:27:24;;;;;;;24.08;17.48;;;;;;;;;;5010789;28;20411;-60
2024/01/23 09:29:49;;;;;;;23.58;17.50;;;;;;;;;;5009658;28;20042;-59
2024/01/23 09:32:15;;;;;;;24.45;17.58;;;;;;;;;;5002606;28;20069;-59
2024/01/23 09:34:40;;;;;;;22.80;17.05;;;;;;;;;;5000514;28;20120;-57
2024/01/23 09:37:06;;;;;;;23.85;18.30;;;;;;;;;;5001039;28;20057;-57
2024/01/23 09:39:31;;;;;;;25.20;17.88;;;;;;;;;;5010804;28;20573;-59
2024/01/23 09:41:58;;;;;;;25.10;16.63;;;;;;;;;;5006813;28;20038;-60
2024/01/23 09:44:24;;;;;;;25.40;18.27;;;;;;;;;;5008753;28;20026;-57
2024/01/23 09:46:50;;;;;;;24.08;17.60;;;;;;;;;;5012179;28;20042;-63
2024/01/23 09:49:16;;;;;;;25.00;18.10;;;;;;;;;;5008609;28;20038;-57
2024/01/23 09:51:47;;;;;;;26.23;18.90;;;;;;;;;;5000570;28;20050;-57
2024/01/23 09:54:12;;;;;;;26.02;18.42;;;;;;;;;;5008938;28;20034;-59
2024/01/23 09:56:39;;;;;;;25.55;18.25;;;;;;;;;;5007942;28;20041;-60
2024/01/23 09:59:05;;;;;;;25.95;18.23;;;;;;;;;;5014375;28;20129;-60
2024/01/23 10:01:30;;;;;;;23.95;18.60;;;;;;;;;;5003322;28;20061;-57
2024/01/23 10:03:57;;;;;;;26.50;18.50;;;;;;;;;;5012444;28;20124;-60
2024/01/23 10:06:23;;;;;;;26.98;18.77;;;;;;;;;;5005282;28;20034;-57
2024/01/23 10:08:48;;;;;;;25.85;18.65;;;;;;;;;;5006548;28;20064;-58
2024/01/23 10:11:14;;;;;;;27.27;19.33;;;;;;;;;;5006132;28;20038;-58
2024/01/23 10:13:41;;;;;;;26.75;19.48;;;;;;;;;;5002615;28;20027;-57
2024/01/23 10:16:06;;;;;;;27.95;19.52;;;;;;;;;;5030669;28;20033;-57
2024/01/23 10:18:32;;;;;;;27.73;19.58;;;;;;;;;;5001289;28;20034;-59
2024/01/23 10:20:58;;;;;;;27.30;19.45;;;;;;;;;;5009506;28;20038;-59
2024/01/23 10:23:23;;;;;;;27.25;19.58;;;;;;;;;;5008794;28;20037;-57
2024/01/23 10:25:48;;;;;;;25.38;19.10;;;;;;;;;;5005499;28;20042;-57
2024/01/23 10:28:15;;;;;;;26.23;19.90;;;;;;;;;;4996666;28;20042;-57
2024/01/23 10:30:40;;;;;;;27.52;19.55;;;;;;;;;;5008394;28;20154;-57
2024/01/23 10:33:06;;;;;;;26.48;19.08;;;;;;;;;;5010703;28;20125;-58
2024/01/23 10:35:33;;;;;;;27.92;20.45;;;;;;;;;;5002715;28;20707;-58
2024/01/23 10:37:59;;;;;;;28.90;20.25;;;;;;;;;;4994554;28;20484;-60
2024/01/23 10:40:24;;;;;;;28.63;20.08;;;;;;;;;;4992218;28;20045;-58
2024/01/23 10:42:50;;;;;;;26.70;20.13;;;;;;;;;;5005238;28;20038;-60
2024/01/23 10:45:16;;;;;;;27.52;20.83;;;;;;;;;;5002442;28;20034;-58
2024/01/23 10:47:42;;;;;;;29.63;20.95;;;;;;;;;;4998583;28;20089;-59
2024/01/23 10:50:07;;;;;;;27.95;20.25;;;;;;;;;;4997632;28;20062;-57
2024/01/23 10:52:34;;;;;;;28.95;20.70;;;;;;;;;;5005323;28;20038;-57
2024/01/23 10:54:59;;;;;;;27.83;20.20;;;;;;;;;;5007946;28;20045;-58
2024/01/23 10:57:24;;;;;;;28.77;19.73;;;;;;;;;;5001720;28;20052;-59
2024/01/23 10:59:50;;;;;;;30.45;20.75;;;;;;;;;;5017909;28;20111;-59
2024/01/23 11:02:18;;;;;;;28.73;20.35;;;;;;;;;;5024779;28;20046;-62
2024/01/23 11:04:44;;;;;;;30.40;21.67;;;;;;;;;;5004081;28;20130;-62
2024/01/23 11:07:15;;;;;;;29.77;21.27;;;;;;;;;;5008120;28;20093;-58
2024/01/23 11:09:51;;;;;;;27.70;20.58;;;;;;;;;;5008427;28;20046;-57
2024/01/23 11:12:21;;;;;;;27.77;19.85;;;;;;;;;;5008987;28;20061;-57
2024/01/23 11:14:50;;;;;;;29.80;21.35;;;;;;;;;;5008596;28;20041;-58
2024/01/23 11:17:17;;;;;;;30.30;21.15;;;;;;;;;;5009287;28;20120;-58
2024/01/23 11:19:42;;;;;;;30.73;21.98;;;;;;;;;;5026404;28;20040;-58
2024/01/23 11:22:11;;;;;;;30.35;21.67;;;;;;;;;;5026331;28;20437;-60
2024/01/23 11:24:39;;;;;;;30.95;20.77;;;;;;;;;;5018536;28;20033;-58
2024/01/23 11:27:05;;;;;;;30.90;21.40;;;;;;;;;;5012136;28;20542;-58
2024/01/23 11:29:30;;;;;;;34.05;23.02;;;;;;;;;;5016375;28;20049;-57
2024/01/23 11:31:56;;;;;;;30.67;22.35;;;;;;;;;;5012500;28;20046;-59
2024/01/23 11:34:21;;;;;;;30.00;21.48;;;;;;;;;;5023925;28;20034;-57
2024/01/23 11:36:46;;;;;;;30.63;21.55;;;;;;;;;;5007454;28;20092;-58
2024/01/23 11:39:14;;;;;;;29.05;20.92;;;;;;;;;;5004446;28;20057;-57
2024/01/23 11:41:39;;;;;;;28.40;20.83;;;;;;;;;;5007698;28;20049;-58
2024/01/23 11:44:05;;;;;;;30.70;22.00;;;;;;;;;;5011283;28;20045;-59
2024/01/23 11:46:30;;;;;;;28.40;20.90;;;;;;;;;;5007610;28;20555;-58
2024/01/23 11:48:55;;;;;;;30.15;21.00;;;;;;;;;;5006901;28;20034;-58
2024/01/23 11:51:21;;;;;;;29.38;21.52;;;;;;;;;;5008507;28;20054;-59
2024/01/23 11:53:46;;;;;;;28.83;20.98;;;;;;;;;;5006050;28;20034;-58
2024/01/23 11:56:12;;;;;;;31.15;21.73;;;;;;;;;;5007756;28;20030;-61
2024/01/23 11:58:38;;;;;;;29.52;21.67;;;;;;;;;;5010344;28;20037;-58
2024/01/23 12:01:04;;;;;;;31.27;21.38;;;;;;;;;;5006851;28;20496;-61
2024/01/23 12:03:29;;;;;;;29.02;21.70;;;;;;;;;;5007268;28;20038;-60
2024/01/23 12:05:54;;;;;;;30.08;21.60;;;;;;;;;;5007583;28;20046;-58
2024/01/23 12:08:20;;;;;;;26.92;20.17;;;;;;;;;;5007904;28;20034;-61
2024/01/23 12:10:46;;;;;;;29.38;21.23;;;;;;;;;;5009446;28;20038;-63
2024/01/23 12:13:11;;;;;;;27.35;20.48;;;;;;;;;;5008157;28;20104;-62
2024/01/23 12:15:37;;;;;;;29.17;20.80;;;;;;;;;;5008861;28;20496;-58
2024/01/23 12:18:02;;;;;;;30.35;21.45;;;;;;;;;;5013676;28;20103;-60
2024/01/23 12:20:28;;;;;;;28.30;20.98;;;;;;;;;;5009239;28;20029;-59
2024/01/23 12:22:53;;;;;;;29.63;21.27;;;;;;;;;;5008410;28;20036;-58
2024/01/23 12:25:18;;;;;;;32.05;21.80;;;;;;;;;;5007935;28;20433;-63
2024/01/23 12:27:44;;;;;;;28.02;20.73;;;;;;;;;;5007535;28;20037;-59
2024/01/23 12:30:10;;;;;;;28.08;20.92;;;;;;;;;;5007576;28;20150;-59
2024/01/23 12:32:35;;;;;;;28.20;20.95;;;;;;;;;;5007191;28;20447;-59
2024/01/23 12:35:01;;;;;;;27.73;20.73;;;;;;;;;;5012538;28;20129;-59
2024/01/23 12:37:28;;;;;;;27.90;21.08;;;;;;;;;;5005931;28;20045;-59
2024/01/23 12:39:54;;;;;;;29.30;20.90;;;;;;;;;;4991788;28;20026;-59
2024/01/23 12:42:19;;;;;;;28.70;21.23;;;;;;;;;;5008734;28;20037;-59
2024/01/23 12:44:44;;;;;;;27.92;21.17;;;;;;;;;;5005533;28;20432;-64
2024/01/23 12:47:11;;;;;;;29.50;21.20;;;;;;;;;;5009590;28;20749;-59
2024/01/23 12:49:37;;;;;;;28.00;20.73;;;;;;;;;;4997683;28;20521;-61
2024/01/23 12:52:02;;;;;;;29.90;21.58;;;;;;;;;;4989248;28;20118;-60
2024/01/23 12:54:28;;;;;;;28.98;21.85;;;;;;;;;;5004363;28;20034;-60
2024/01/23 12:56:53;;;;;;;27.40;19.73;;;;;;;;;;5005573;28;20034;-61
2024/01/23 12:59:19;;;;;;;29.92;21.70;;;;;;;;;;5004736;28;20026;-63
2024/01/23 13:01:45;;;;;;;29.98;21.45;;;;;;;;;;5006639;28;20117;-59
2024/01/23 13:04:11;;;;;;;27.77;21.05;;;;;;;;;;4998952;28;20476;-60
2024/01/23 13:06:36;;;;;;;29.38;21.35;;;;;;;;;;5002727;28;20030;-60
2024/01/23 13:09:02;;;;;;;28.17;20.95;;;;;;;;;;5007017;28;20207;-62
2024/01/23 13:11:27;;;;;;;26.48;20.88;;;;;;;;;;5005572;28;20041;-59
2024/01/23 13:13:52;;;;;;;29.00;21.33;;;;;;;;;;5007820;28;20036;-59
2024/01/23 13:16:17;;;;;;;28.27;21.02;;;;;;;;;;5005349;28;20048;-63
2024/01/23 13:18:43;;;;;;;28.40;20.58;;;;;;;;;;4993876;28;20080;-58
2024/01/23 13:21:09;;;;;;;28.60;20.42;;;;;;;;;;5004262;28;20048;-62
2024/01/23 13:23:34;;;;;;;29.23;20.92;;;;;;;;;;4994309;28;20085;-59
2024/01/23 13:25:59;;;;;;;28.25;20.75;;;;;;;;;;5006270;28;20046;-64
2024/01/23 13:28:24;;;;;;;27.55;20.77;;;;;;;;;;5007879;28;20863;-62
2024/01/23 13:30:50;;;;;;;29.83;21.98;;;;;;;;;;5005577;28;20046;-60
2024/01/23 13:33:16;;;;;;;28.73;21.33;;;;;;;;;;5007117;28;20061;-62
2024/01/23 13:35:41;;;;;;;28.75;21.30;;;;;;;;;;5001570;28;20061;-59
2024/01/23 13:38:06;;;;;;;28.85;21.45;;;;;;;;;;4994940;28;20065;-59
2024/01/23 13:40:32;;;;;;;28.35;20.20;;;;;;;;;;5003362;28;20053;-58
2024/01/23 13:42:57;;;;;;;30.58;21.73;;;;;;;;;;5005935;28;20037;-58
2024/01/23 13:45:23;;;;;;;29.02;20.67;;;;;;;;;;5006332;28;20491;-61
2024/01/23 13:47:49;;;;;;;29.70;21.20;;;;;;;;;;5005315;28;20500;-61
2024/01/23 13:50:17;;;;;;;28.85;21.05;;;;;;;;;;5018144;28;20033;-59
2024/01/23 13:52:43;;;;;;;28.42;20.70;;;;;;;;;;5015931;28;20050;-59
2024/01/23 13:55:10;;;;;;;28.23;20.75;;;;;;;;;;5014424;28;20042;-62
2024/01/23 13:57:38;;;;;;;28.75;21.45;;;;;;;;;;5018667;28;20038;-58
2024/01/23 14:00:05;;;;;;;28.00;20.50;;;;;;;;;;5018038;28;20042;-58
2024/01/23 14:02:31;;;;;;;28.27;20.73;;;;;;;;;;5010141;28;20073;-58
2024/01/23 14:04:59;;;;;;;28.55;21.25;;;;;;;;;;5009326;28;20585;-59
2024/01/23 14:07:24;;;;;;;29.15;21.55;;;;;;;;;;5008658;28;20034;-58
2024/01/23 14:09:49;;;;;;;28.77;21.08;;;;;;;;;;5008978;28;20037;-58